sensor_id;sensor_type;location;lat;lon;timestamp;pressure;altitude;pressure_sealevel;temperature;humidity
61870;BME280;47810;42.264;23.826;2023-07-31T00:00:00;93445.66;;;21.46;57.61
61870;BME280;47810;42.264;23.826;2023-07-31T00:02:26;93456.41;;;21.46;58.32
61870;BME280;47810;42.264;23.826;2023-07-31T00:04:51;93467.00;;;21.39;58.88
61870;BME280;47810;42.264;23.826;2023-07-31T00:07:17;93478.84;;;21.53;58.86
61870;BME280;47810;42.264;23.826;2023-07-31T00:09:43;93487.53;;;21.63;59.20
61870;BME280;47810;42.264;23.826;2023-07-31T00:12:08;93501.84;;;21.56;60.00
61870;BME280;47810;42.264;23.826;2023-07-31T00:14:34;93501.03;;;21.55;59.89
61870;BME280;47810;42.264;23.826;2023-07-31T00:17:00;93510.38;;;21.68;60.37
61870;BME280;47810;42.264;23.826;2023-07-31T00:19:26;93522.94;;;21.36;61.70
61870;BME280;47810;42.264;23.826;2023-07-31T00:21:51;93521.34;;;20.86;63.32
61870;BME280;47810;42.264;23.826;2023-07-31T00:24:17;93530.75;;;20.49;69.26
61870;BME280;47810;42.264;23.826;2023-07-31T00:26:42;93531.72;;;19.91;74.35
61870;BME280;47810;42.264;23.826;2023-07-31T00:29:08;93540.50;;;19.24;77.87
61870;BME280;47810;42.264;23.826;2023-07-31T00:31:34;93548.22;;;19.36;79.93
61870;BME280;47810;42.264;23.826;2023-07-31T00:33:59;93553.31;;;18.87;83.33
61870;BME280;47810;42.264;23.826;2023-07-31T00:36:25;93550.31;;;18.81;84.10
61870;BME280;47810;42.264;23.826;2023-07-31T00:38:50;93540.00;;;18.95;85.02
61870;BME280;47810;42.264;23.826;2023-07-31T00:41:16;93527.66;;;19.02;85.20
61870;BME280;47810;42.264;23.826;2023-07-31T00:43:41;93522.91;;;19.14;85.74
61870;BME280;47810;42.264;23.826;2023-07-31T00:46:07;93509.06;;;19.35;84.23
61870;BME280;47810;42.264;23.826;2023-07-31T00:48:32;93492.75;;;19.54;83.12
61870;BME280;47810;42.264;23.826;2023-07-31T00:50:59;93486.78;;;19.68;82.65
61870;BME280;47810;42.264;23.826;2023-07-31T00:53:26;93483.63;;;19.65;82.31
61870;BME280;47810;42.264;23.826;2023-07-31T00:55:52;93478.00;;;19.58;82.53
61870;BME280;47810;42.264;23.826;2023-07-31T00:58:18;93475.06;;;19.69;81.99
61870;BME280;47810;42.264;23.826;2023-07-31T01:00:43;93467.03;;;19.69;81.92
61870;BME280;47810;42.264;23.826;2023-07-31T01:03:09;93463.31;;;19.62;81.17
61870;BME280;47810;42.264;23.826;2023-07-31T01:08:04;93436.41;;;19.72;82.32
61870;BME280;47810;42.264;23.826;2023-07-31T01:10:54;93436.88;;;19.67;83.22
61870;BME280;47810;42.264;23.826;2023-07-31T01:13:21;93416.59;;;19.57;82.86
61870;BME280;47810;42.264;23.826;2023-07-31T01:15:47;93420.78;;;19.59;83.64
61870;BME280;47810;42.264;23.826;2023-07-31T01:18:12;93430.03;;;19.73;83.15
61870;BME280;47810;42.264;23.826;2023-07-31T01:20:38;93426.72;;;19.87;82.03
61870;BME280;47810;42.264;23.826;2023-07-31T01:28:27;93415.25;;;19.61;87.31
61870;BME280;47810;42.264;23.826;2023-07-31T01:30:55;93410.28;;;19.66;85.86
61870;BME280;47810;42.264;23.826;2023-07-31T01:33:24;93400.75;;;19.80;84.34
61870;BME280;47810;42.264;23.826;2023-07-31T01:35:50;93409.78;;;19.78;82.59
61870;BME280;47810;42.264;23.826;2023-07-31T01:38:15;93413.13;;;19.81;84.71
61870;BME280;47810;42.264;23.826;2023-07-31T01:40:45;93411.78;;;19.68;85.57
61870;BME280;47810;42.264;23.826;2023-07-31T01:43:16;93403.75;;;19.68;84.40
61870;BME280;47810;42.264;23.826;2023-07-31T01:45:41;93413.81;;;19.83;82.74
61870;BME280;47810;42.264;23.826;2023-07-31T01:48:07;93409.44;;;19.90;81.35
61870;BME280;47810;42.264;23.826;2023-07-31T01:50:32;93405.94;;;20.14;82.48
61870;BME280;47810;42.264;23.826;2023-07-31T01:52:58;93411.78;;;20.17;82.26
61870;BME280;47810;42.264;23.826;2023-07-31T01:55:23;93406.09;;;20.12;81.63
61870;BME280;47810;42.264;23.826;2023-07-31T01:57:49;93415.31;;;20.10;80.64
61870;BME280;47810;42.264;23.826;2023-07-31T02:00:14;93410.97;;;20.17;82.22
61870;BME280;47810;42.264;23.826;2023-07-31T02:02:40;93409.41;;;20.31;82.26
61870;BME280;47810;42.264;23.826;2023-07-31T02:05:06;93405.78;;;20.07;80.91
61870;BME280;47810;42.264;23.826;2023-07-31T02:07:31;93403.44;;;20.04;80.64
61870;BME280;47810;42.264;23.826;2023-07-31T02:09:57;93398.41;;;20.01;82.51
61870;BME280;47810;42.264;23.826;2023-07-31T02:12:25;93401.09;;;20.01;82.76
61870;BME280;47810;42.264;23.826;2023-07-31T02:14:51;93393.19;;;20.08;81.90
61870;BME280;47810;42.264;23.826;2023-07-31T02:17:16;93395.06;;;20.07;81.79
61870;BME280;47810;42.264;23.826;2023-07-31T02:19:42;93405.75;;;19.99;84.31
61870;BME280;47810;42.264;23.826;2023-07-31T02:22:07;93394.38;;;19.89;84.69
61870;BME280;47810;42.264;23.826;2023-07-31T02:24:33;93407.03;;;19.54;84.25
61870;BME280;47810;42.264;23.826;2023-07-31T02:26:58;93401.50;;;19.47;85.16
61870;BME280;47810;42.264;23.826;2023-07-31T02:29:24;93398.88;;;19.64;83.65
61870;BME280;47810;42.264;23.826;2023-07-31T02:31:49;93405.06;;;19.56;85.50
61870;BME280;47810;42.264;23.826;2023-07-31T02:34:15;93401.00;;;19.44;86.06
61870;BME280;47810;42.264;23.826;2023-07-31T02:36:40;93401.03;;;19.60;84.73
61870;BME280;47810;42.264;23.826;2023-07-31T02:39:06;93399.84;;;19.54;84.56
61870;BME280;47810;42.264;23.826;2023-07-31T02:41:32;93403.56;;;19.62;83.95
61870;BME280;47810;42.264;23.826;2023-07-31T02:43:58;93405.59;;;19.76;82.89
61870;BME280;47810;42.264;23.826;2023-07-31T02:46:24;93409.94;;;19.69;84.27
61870;BME280;47810;42.264;23.826;2023-07-31T02:48:50;93420.28;;;19.55;85.68
61870;BME280;47810;42.264;23.826;2023-07-31T02:51:16;93436.06;;;19.75;82.81
61870;BME280;47810;42.264;23.826;2023-07-31T02:53:42;93440.44;;;19.68;84.83
61870;BME280;47810;42.264;23.826;2023-07-31T02:56:08;93447.53;;;19.51;85.46
61870;BME280;47810;42.264;23.826;2023-07-31T02:58:34;93451.53;;;19.39;86.18
61870;BME280;47810;42.264;23.826;2023-07-31T03:00:59;93447.63;;;19.17;87.22
61870;BME280;47810;42.264;23.826;2023-07-31T03:03:25;93445.63;;;19.19;87.03
61870;BME280;47810;42.264;23.826;2023-07-31T03:05:50;93453.69;;;19.27;86.88
61870;BME280;47810;42.264;23.826;2023-07-31T03:08:16;93457.19;;;19.36;86.85
61870;BME280;47810;42.264;23.826;2023-07-31T03:10:41;93460.47;;;19.05;88.29
61870;BME280;47810;42.264;23.826;2023-07-31T03:13:07;93458.41;;;18.99;88.14
61870;BME280;47810;42.264;23.826;2023-07-31T03:15:32;93464.13;;;19.04;88.48
61870;BME280;47810;42.264;23.826;2023-07-31T03:17:58;93463.50;;;19.18;87.89
61870;BME280;47810;42.264;23.826;2023-07-31T03:20:24;93471.59;;;19.26;85.42
61870;BME280;47810;42.264;23.826;2023-07-31T03:22:49;93463.56;;;19.35;84.54
61870;BME280;47810;42.264;23.826;2023-07-31T03:25:15;93462.63;;;19.52;83.23
61870;BME280;47810;42.264;23.826;2023-07-31T03:27:42;93461.91;;;19.42;83.36
61870;BME280;47810;42.264;23.826;2023-07-31T03:30:08;93460.56;;;19.38;83.77
61870;BME280;47810;42.264;23.826;2023-07-31T03:32:36;93456.53;;;19.34;85.51
61870;BME280;47810;42.264;23.826;2023-07-31T03:35:02;93458.38;;;19.33;85.96
61870;BME280;47810;42.264;23.826;2023-07-31T03:37:28;93451.47;;;19.22;85.43
61870;BME280;47810;42.264;23.826;2023-07-31T03:39:54;93450.06;;;19.02;85.30
61870;BME280;47810;42.264;23.826;2023-07-31T03:42:19;93453.38;;;18.96;86.63
61870;BME280;47810;42.264;23.826;2023-07-31T03:44:46;93459.09;;;19.01;86.05
61870;BME280;47810;42.264;23.826;2023-07-31T03:47:12;93461.03;;;18.91;86.90
61870;BME280;47810;42.264;23.826;2023-07-31T03:49:37;93446.38;;;19.03;86.06
61870;BME280;47810;42.264;23.826;2023-07-31T03:52:03;93438.84;;;18.98;86.14
61870;BME280;47810;42.264;23.826;2023-07-31T03:54:29;93438.59;;;18.75;87.10
61870;BME280;47810;42.264;23.826;2023-07-31T03:56:55;93435.22;;;18.73;86.34
61870;BME280;47810;42.264;23.826;2023-07-31T03:59:22;93434.09;;;18.50;87.07
61870;BME280;47810;42.264;23.826;2023-07-31T04:01:48;93447.06;;;18.45;87.59
61870;BME280;47810;42.264;23.826;2023-07-31T04:04:13;93465.56;;;18.64;87.05
61870;BME280;47810;42.264;23.826;2023-07-31T04:06:39;93470.59;;;18.67;88.67
61870;BME280;47810;42.264;23.826;2023-07-31T04:09:04;93483.75;;;18.60;87.80
61870;BME280;47810;42.264;23.826;2023-07-31T04:11:30;93481.50;;;18.48;87.62
61870;BME280;47810;42.264;23.826;2023-07-31T04:13:55;93490.25;;;18.58;88.15
61870;BME280;47810;42.264;23.826;2023-07-31T04:16:21;93495.06;;;18.72;86.84
61870;BME280;47810;42.264;23.826;2023-07-31T04:18:47;93491.19;;;18.49;87.06
61870;BME280;47810;42.264;23.826;2023-07-31T04:21:12;93489.53;;;18.48;87.54
61870;BME280;47810;42.264;23.826;2023-07-31T04:23:38;93491.84;;;18.43;88.26
61870;BME280;47810;42.264;23.826;2023-07-31T04:26:04;93484.59;;;18.61;87.97
61870;BME280;47810;42.264;23.826;2023-07-31T04:28:29;93477.72;;;18.76;86.45
61870;BME280;47810;42.264;23.826;2023-07-31T04:30:58;93473.38;;;18.83;85.79
61870;BME280;47810;42.264;23.826;2023-07-31T04:33:24;93473.78;;;18.97;84.75
61870;BME280;47810;42.264;23.826;2023-07-31T04:35:50;93482.88;;;19.04;85.58
61870;BME280;47810;42.264;23.826;2023-07-31T04:38:18;93485.94;;;19.17;84.68
61870;BME280;47810;42.264;23.826;2023-07-31T04:40:44;93481.75;;;19.15;84.78
61870;BME280;47810;42.264;23.826;2023-07-31T04:43:10;93487.59;;;19.10;84.14
61870;BME280;47810;42.264;23.826;2023-07-31T04:45:36;93488.81;;;19.24;83.92
61870;BME280;47810;42.264;23.826;2023-07-31T04:48:01;93492.00;;;19.27;84.57
61870;BME280;47810;42.264;23.826;2023-07-31T04:50:27;93494.03;;;19.34;84.56
61870;BME280;47810;42.264;23.826;2023-07-31T04:52:52;93495.03;;;19.33;83.74
61870;BME280;47810;42.264;23.826;2023-07-31T04:55:18;93490.91;;;19.04;84.01
61870;BME280;47810;42.264;23.826;2023-07-31T04:57:44;93488.88;;;19.06;85.36
61870;BME280;47810;42.264;23.826;2023-07-31T05:00:09;93493.91;;;19.09;84.41
61870;BME280;47810;42.264;23.826;2023-07-31T05:02:35;93493.66;;;19.20;84.36
61870;BME280;47810;42.264;23.826;2023-07-31T05:05:00;93482.28;;;19.26;85.27
61870;BME280;47810;42.264;23.826;2023-07-31T05:07:26;93492.00;;;19.36;84.55
61870;BME280;47810;42.264;23.826;2023-07-31T05:09:52;93480.63;;;19.34;86.97
61870;BME280;47810;42.264;23.826;2023-07-31T05:12:17;93482.03;;;19.46;85.15
61870;BME280;47810;42.264;23.826;2023-07-31T05:14:44;93475.63;;;19.39;84.45
61870;BME280;47810;42.264;23.826;2023-07-31T05:17:10;93485.31;;;19.31;85.52
61870;BME280;47810;42.264;23.826;2023-07-31T05:19:35;93485.16;;;19.33;87.85
61870;BME280;47810;42.264;23.826;2023-07-31T05:22:01;93482.94;;;19.28;89.29
61870;BME280;47810;42.264;23.826;2023-07-31T05:24:26;93480.81;;;19.40;89.26
61870;BME280;47810;42.264;23.826;2023-07-31T05:26:52;93479.34;;;19.46;89.27
61870;BME280;47810;42.264;23.826;2023-07-31T05:29:18;93469.03;;;19.67;89.85
61870;BME280;47810;42.264;23.826;2023-07-31T05:31:43;93475.09;;;19.86;89.60
61870;BME280;47810;42.264;23.826;2023-07-31T05:34:09;93471.59;;;20.01;87.88
61870;BME280;47810;42.264;23.826;2023-07-31T05:36:34;93467.75;;;20.20;88.08
61870;BME280;47810;42.264;23.826;2023-07-31T05:39:00;93471.59;;;20.34;88.54
61870;BME280;47810;42.264;23.826;2023-07-31T05:41:31;93467.41;;;20.40;89.26
61870;BME280;47810;42.264;23.826;2023-07-31T05:43:57;93471.25;;;20.45;89.97
61870;BME280;47810;42.264;23.826;2023-07-31T05:46:24;93470.75;;;20.42;87.29
61870;BME280;47810;42.264;23.826;2023-07-31T05:48:49;93467.56;;;20.46;88.69
61870;BME280;47810;42.264;23.826;2023-07-31T05:51:15;93471.44;;;20.52;87.93
61870;BME280;47810;42.264;23.826;2023-07-31T05:53:41;93470.78;;;20.58;88.03
61870;BME280;47810;42.264;23.826;2023-07-31T05:56:07;93466.38;;;20.49;88.54
61870;BME280;47810;42.264;23.826;2023-07-31T05:58:32;93474.59;;;20.47;86.12
61870;BME280;47810;42.264;23.826;2023-07-31T06:00:58;93472.59;;;20.66;86.62
61870;BME280;47810;42.264;23.826;2023-07-31T06:03:23;93465.41;;;20.58;86.88
61870;BME280;47810;42.264;23.826;2023-07-31T06:05:49;93469.38;;;20.70;86.13
61870;BME280;47810;42.264;23.826;2023-07-31T06:08:15;93463.03;;;20.72;84.69
61870;BME280;47810;42.264;23.826;2023-07-31T06:10:40;93467.72;;;20.78;86.34
61870;BME280;47810;42.264;23.826;2023-07-31T06:13:09;93468.34;;;20.80;85.31
61870;BME280;47810;42.264;23.826;2023-07-31T06:15:34;93472.06;;;20.79;83.93
61870;BME280;47810;42.264;23.826;2023-07-31T06:18:00;93467.03;;;20.84;85.18
61870;BME280;47810;42.264;23.826;2023-07-31T06:20:27;93464.63;;;20.97;84.67
61870;BME280;47810;42.264;23.826;2023-07-31T06:22:53;93469.81;;;21.07;83.58
61870;BME280;47810;42.264;23.826;2023-07-31T06:25:19;93473.13;;;21.09;82.75
61870;BME280;47810;42.264;23.826;2023-07-31T06:27:46;93471.31;;;21.09;83.35
61870;BME280;47810;42.264;23.826;2023-07-31T06:30:12;93471.63;;;21.14;82.75
61870;BME280;47810;42.264;23.826;2023-07-31T06:32:37;93470.91;;;21.21;82.07
61870;BME280;47810;42.264;23.826;2023-07-31T06:35:03;93468.50;;;21.34;82.15
61870;BME280;47810;42.264;23.826;2023-07-31T06:37:29;93464.88;;;21.35;79.28
61870;BME280;47810;42.264;23.826;2023-07-31T06:39:54;93462.44;;;21.48;79.31
61870;BME280;47810;42.264;23.826;2023-07-31T06:42:21;93465.69;;;21.67;76.00
61870;BME280;47810;42.264;23.826;2023-07-31T06:44:46;93471.41;;;21.63;75.40
61870;BME280;47810;42.264;23.826;2023-07-31T06:47:12;93464.38;;;21.62;72.73
61870;BME280;47810;42.264;23.826;2023-07-31T06:49:38;93466.34;;;21.69;73.52
61870;BME280;47810;42.264;23.826;2023-07-31T06:52:03;93466.31;;;21.77;73.42
61870;BME280;47810;42.264;23.826;2023-07-31T06:54:29;93461.94;;;21.76;73.05
61870;BME280;47810;42.264;23.826;2023-07-31T06:56:55;93457.84;;;21.88;71.55
61870;BME280;47810;42.264;23.826;2023-07-31T06:59:21;93465.84;;;21.96;70.61
61870;BME280;47810;42.264;23.826;2023-07-31T07:01:46;93472.06;;;21.97;70.05
61870;BME280;47810;42.264;23.826;2023-07-31T07:04:13;93465.00;;;21.96;70.42
61870;BME280;47810;42.264;23.826;2023-07-31T07:13:15;93476.41;;;22.29;68.97
61870;BME280;47810;42.264;23.826;2023-07-31T07:15:58;93467.25;;;22.38;69.55
61870;BME280;47810;42.264;23.826;2023-07-31T07:18:26;93476.25;;;22.45;67.22
61870;BME280;47810;42.264;23.826;2023-07-31T07:20:58;93476.84;;;22.55;66.90
61870;BME280;47810;42.264;23.826;2023-07-31T07:26:56;93490.25;;;22.18;67.36
61870;BME280;47810;42.264;23.826;2023-07-31T07:29:25;93492.75;;;21.96;67.81
61870;BME280;47810;42.264;23.826;2023-07-31T07:31:53;93489.50;;;22.01;69.28
61870;BME280;47810;42.264;23.826;2023-07-31T07:34:18;93489.97;;;22.04;69.68
61870;BME280;47810;42.264;23.826;2023-07-31T07:36:44;93489.38;;;22.25;70.63
61870;BME280;47810;42.264;23.826;2023-07-31T07:39:10;93491.81;;;22.35;68.83
61870;BME280;47810;42.264;23.826;2023-07-31T07:41:35;93485.16;;;22.46;67.59
61870;BME280;47810;42.264;23.826;2023-07-31T07:44:01;93487.00;;;22.83;67.84
61870;BME280;47810;42.264;23.826;2023-07-31T07:46:26;93480.44;;;22.86;64.55
61870;BME280;47810;42.264;23.826;2023-07-31T07:48:52;93469.31;;;23.04;64.50
61870;BME280;47810;42.264;23.826;2023-07-31T07:51:17;93481.56;;;23.21;64.53
61870;BME280;47810;42.264;23.826;2023-07-31T07:53:43;93471.81;;;23.20;64.17
61870;BME280;47810;42.264;23.826;2023-07-31T07:56:08;93468.38;;;23.26;62.63
61870;BME280;47810;42.264;23.826;2023-07-31T07:58:34;93465.97;;;23.31;62.70
61870;BME280;47810;42.264;23.826;2023-07-31T08:01:00;93471.16;;;23.33;62.28
61870;BME280;47810;42.264;23.826;2023-07-31T08:03:25;93465.59;;;23.34;59.52
61870;BME280;47810;42.264;23.826;2023-07-31T08:05:51;93465.19;;;23.52;59.92
61870;BME280;47810;42.264;23.826;2023-07-31T08:08:16;93471.50;;;23.74;60.34
61870;BME280;47810;42.264;23.826;2023-07-31T08:10:42;93460.06;;;23.72;58.75
61870;BME280;47810;42.264;23.826;2023-07-31T08:13:10;93471.66;;;23.87;61.45
61870;BME280;47810;42.264;23.826;2023-07-31T08:15:36;93474.69;;;23.99;59.07
61870;BME280;47810;42.264;23.826;2023-07-31T08:18:04;93470.16;;;24.21;59.36
61870;BME280;47810;42.264;23.826;2023-07-31T08:20:30;93466.31;;;24.30;58.48
61870;BME280;47810;42.264;23.826;2023-07-31T08:22:55;93467.72;;;24.48;59.16
61870;BME280;47810;42.264;23.826;2023-07-31T08:25:21;93463.72;;;24.65;57.12
61870;BME280;47810;42.264;23.826;2023-07-31T08:27:46;93464.69;;;24.57;58.46
61870;BME280;47810;42.264;23.826;2023-07-31T08:30:12;93469.16;;;24.44;58.29
61870;BME280;47810;42.264;23.826;2023-07-31T08:32:38;93472.09;;;24.27;59.72
61870;BME280;47810;42.264;23.826;2023-07-31T08:35:03;93462.72;;;24.45;58.47
61870;BME280;47810;42.264;23.826;2023-07-31T08:37:29;93464.22;;;24.75;53.95
61870;BME280;47810;42.264;23.826;2023-07-31T08:39:55;93462.91;;;24.93;54.55
61870;BME280;47810;42.264;23.826;2023-07-31T08:42:20;93460.38;;;25.19;54.77
61870;BME280;47810;42.264;23.826;2023-07-31T08:44:46;93471.78;;;25.43;59.85
61870;BME280;47810;42.264;23.826;2023-07-31T08:47:12;93460.00;;;25.64;57.34
61870;BME280;47810;42.264;23.826;2023-07-31T08:49:38;93471.56;;;25.86;53.69
61870;BME280;47810;42.264;23.826;2023-07-31T08:52:06;93473.13;;;25.67;50.69
61870;BME280;47810;42.264;23.826;2023-07-31T08:54:32;93465.44;;;25.29;53.60
61870;BME280;47810;42.264;23.826;2023-07-31T08:56:58;93481.28;;;25.39;53.80
61870;BME280;47810;42.264;23.826;2023-07-31T08:59:26;93480.00;;;25.69;54.32
61870;BME280;47810;42.264;23.826;2023-07-31T09:01:53;93484.03;;;25.87;51.54
61870;BME280;47810;42.264;23.826;2023-07-31T09:04:20;93484.16;;;25.65;52.11
61870;BME280;47810;42.264;23.826;2023-07-31T09:06:48;93482.66;;;25.56;54.12
61870;BME280;47810;42.264;23.826;2023-07-31T09:09:13;93480.03;;;25.35;57.59
61870;BME280;47810;42.264;23.826;2023-07-31T09:11:39;93489.44;;;25.45;53.88
61870;BME280;47810;42.264;23.826;2023-07-31T09:14:04;93475.38;;;25.22;54.47
61870;BME280;47810;42.264;23.826;2023-07-31T09:16:34;93484.91;;;25.18;54.79
61870;BME280;47810;42.264;23.826;2023-07-31T09:19:00;93486.06;;;25.37;53.99
61870;BME280;47810;42.264;23.826;2023-07-31T09:21:27;93484.13;;;25.24;53.06
61870;BME280;47810;42.264;23.826;2023-07-31T09:23:53;93493.91;;;25.25;54.07
61870;BME280;47810;42.264;23.826;2023-07-31T09:26:34;93483.81;;;25.40;56.69
61870;BME280;47810;42.264;23.826;2023-07-31T09:29:01;93479.03;;;25.84;56.76
61870;BME280;47810;42.264;23.826;2023-07-31T09:31:41;93482.44;;;25.99;53.73
61870;BME280;47810;42.264;23.826;2023-07-31T09:34:07;93481.75;;;25.49;52.61
61870;BME280;47810;42.264;23.826;2023-07-31T09:36:32;93484.03;;;25.45;52.99
61870;BME280;47810;42.264;23.826;2023-07-31T09:39:04;93483.59;;;25.42;53.83
61870;BME280;47810;42.264;23.826;2023-07-31T09:41:30;93475.88;;;25.39;53.71
61870;BME280;47810;42.264;23.826;2023-07-31T09:43:56;93476.34;;;25.84;57.51
61870;BME280;47810;42.264;23.826;2023-07-31T09:46:21;93480.59;;;26.19;51.72
61870;BME280;47810;42.264;23.826;2023-07-31T09:48:47;93477.00;;;25.99;51.18
61870;BME280;47810;42.264;23.826;2023-07-31T09:51:14;93478.25;;;25.96;50.65
61870;BME280;47810;42.264;23.826;2023-07-31T09:53:43;93478.47;;;25.95;51.50
61870;BME280;47810;42.264;23.826;2023-07-31T09:56:14;93479.91;;;25.91;51.98
61870;BME280;47810;42.264;23.826;2023-07-31T09:58:41;93476.47;;;26.23;50.94
61870;BME280;47810;42.264;23.826;2023-07-31T10:01:07;93473.22;;;26.61;50.22
61870;BME280;47810;42.264;23.826;2023-07-31T10:03:33;93459.66;;;27.01;49.38
61870;BME280;47810;42.264;23.826;2023-07-31T10:05:59;93451.53;;;27.14;48.84
61870;BME280;47810;42.264;23.826;2023-07-31T10:08:28;93450.50;;;27.29;50.11
61870;BME280;47810;42.264;23.826;2023-07-31T10:10:55;93453.25;;;27.74;48.59
61870;BME280;47810;42.264;23.826;2023-07-31T10:13:23;93445.34;;;27.66;46.87
61870;BME280;47810;42.264;23.826;2023-07-31T10:15:49;93444.50;;;27.72;47.19
61870;BME280;47810;42.264;23.826;2023-07-31T10:18:15;93451.59;;;27.66;48.60
61870;BME280;47810;42.264;23.826;2023-07-31T10:20:41;93449.94;;;27.78;44.15
61870;BME280;47810;42.264;23.826;2023-07-31T10:23:07;93445.69;;;27.89;44.10
61870;BME280;47810;42.264;23.826;2023-07-31T10:25:33;93441.56;;;27.80;44.74
61870;BME280;47810;42.264;23.826;2023-07-31T10:28:00;93440.63;;;28.06;46.13
61870;BME280;47810;42.264;23.826;2023-07-31T10:30:27;93438.91;;;28.50;44.50
61870;BME280;47810;42.264;23.826;2023-07-31T10:32:57;93443.44;;;29.13;45.33
61870;BME280;47810;42.264;23.826;2023-07-31T10:35:22;93444.09;;;29.08;42.36
61870;BME280;47810;42.264;23.826;2023-07-31T10:37:48;93430.75;;;28.12;43.46
61870;BME280;47810;42.264;23.826;2023-07-31T10:40:18;93436.38;;;28.17;43.18
61870;BME280;47810;42.264;23.826;2023-07-31T10:42:49;93439.34;;;28.08;44.88
61870;BME280;47810;42.264;23.826;2023-07-31T10:45:34;93429.25;;;28.22;44.77
61870;BME280;47810;42.264;23.826;2023-07-31T10:48:04;93423.41;;;28.50;44.02
61870;BME280;47810;42.264;23.826;2023-07-31T10:50:30;93428.38;;;28.85;44.46
61870;BME280;47810;42.264;23.826;2023-07-31T10:52:58;93427.88;;;29.20;42.09
61870;BME280;47810;42.264;23.826;2023-07-31T10:55:28;93430.63;;;29.38;40.36
61870;BME280;47810;42.264;23.826;2023-07-31T11:00:32;93419.19;;;28.86;42.69
61870;BME280;47810;42.264;23.826;2023-07-31T11:03:02;93425.53;;;28.98;40.04
61870;BME280;47810;42.264;23.826;2023-07-31T11:05:41;93412.97;;;28.79;41.14
61870;BME280;47810;42.264;23.826;2023-07-31T11:08:23;93414.72;;;29.17;40.57
61870;BME280;47810;42.264;23.826;2023-07-31T11:10:49;93417.63;;;28.72;42.00
61870;BME280;47810;42.264;23.826;2023-07-31T11:13:15;93421.22;;;29.16;39.50
61870;BME280;47810;42.264;23.826;2023-07-31T11:15:41;93417.09;;;29.32;38.77
61870;BME280;47810;42.264;23.826;2023-07-31T11:18:07;93417.31;;;29.48;38.66
61870;BME280;47810;42.264;23.826;2023-07-31T11:20:36;93415.00;;;29.70;38.03
61870;BME280;47810;42.264;23.826;2023-07-31T11:23:08;93406.72;;;29.40;40.64
61870;BME280;47810;42.264;23.826;2023-07-31T11:25:34;93417.66;;;29.77;40.65
61870;BME280;47810;42.264;23.826;2023-07-31T11:28:04;93416.78;;;29.95;39.27
61870;BME280;47810;42.264;23.826;2023-07-31T11:30:30;93419.13;;;29.91;39.63
61870;BME280;47810;42.264;23.826;2023-07-31T11:32:56;93416.75;;;29.65;38.48
61870;BME280;47810;42.264;23.826;2023-07-31T11:35:22;93408.13;;;29.86;43.02
61870;BME280;47810;42.264;23.826;2023-07-31T11:37:48;93404.78;;;29.84;41.22
61870;BME280;47810;42.264;23.826;2023-07-31T11:40:14;93407.06;;;29.69;39.89
61870;BME280;47810;42.264;23.826;2023-07-31T11:42:40;93399.03;;;29.92;39.06
61870;BME280;47810;42.264;23.826;2023-07-31T11:45:06;93400.38;;;30.02;39.01
61870;BME280;47810;42.264;23.826;2023-07-31T11:47:33;93401.66;;;29.99;38.51
61870;BME280;47810;42.264;23.826;2023-07-31T11:50:04;93404.41;;;29.81;38.66
61870;BME280;47810;42.264;23.826;2023-07-31T11:52:32;93397.44;;;29.30;41.16
61870;BME280;47810;42.264;23.826;2023-07-31T11:54:59;93387.91;;;28.77;41.45
61870;BME280;47810;42.264;23.826;2023-07-31T11:57:25;93400.31;;;28.91;40.91
61870;BME280;47810;42.264;23.826;2023-07-31T11:59:51;93391.91;;;29.18;39.29
61870;BME280;47810;42.264;23.826;2023-07-31T12:02:17;93401.59;;;29.32;39.32
61870;BME280;47810;42.264;23.826;2023-07-31T12:04:43;93385.41;;;29.56;39.71
61870;BME280;47810;42.264;23.826;2023-07-31T12:07:09;93394.63;;;29.91;39.27
61870;BME280;47810;42.264;23.826;2023-07-31T12:09:34;93390.25;;;29.90;39.59
61870;BME280;47810;42.264;23.826;2023-07-31T12:12:00;93398.50;;;29.84;39.02
61870;BME280;47810;42.264;23.826;2023-07-31T12:14:27;93384.53;;;29.62;38.77
61870;BME280;47810;42.264;23.826;2023-07-31T12:16:54;93388.16;;;30.04;37.67
61870;BME280;47810;42.264;23.826;2023-07-31T12:19:21;93383.44;;;30.00;37.82
61870;BME280;47810;42.264;23.826;2023-07-31T12:21:47;93387.69;;;29.96;38.46
61870;BME280;47810;42.264;23.826;2023-07-31T12:24:13;93380.88;;;29.86;38.26
61870;BME280;47810;42.264;23.826;2023-07-31T12:26:38;93369.34;;;30.03;37.02
61870;BME280;47810;42.264;23.826;2023-07-31T12:29:05;93364.56;;;29.86;38.44
61870;BME280;47810;42.264;23.826;2023-07-31T12:31:33;93363.06;;;29.72;39.67
61870;BME280;47810;42.264;23.826;2023-07-31T12:34:00;93363.66;;;29.00;39.24
61870;BME280;47810;42.264;23.826;2023-07-31T12:36:26;93362.00;;;29.18;39.77
61870;BME280;47810;42.264;23.826;2023-07-31T12:38:55;93358.91;;;29.51;41.06
61870;BME280;47810;42.264;23.826;2023-07-31T12:41:24;93358.84;;;29.39;38.51
61870;BME280;47810;42.264;23.826;2023-07-31T12:43:49;93357.63;;;29.35;40.18
61870;BME280;47810;42.264;23.826;2023-07-31T12:46:15;93353.84;;;29.18;39.20
61870;BME280;47810;42.264;23.826;2023-07-31T12:48:42;93345.56;;;29.31;39.42
61870;BME280;47810;42.264;23.826;2023-07-31T12:51:08;93353.09;;;29.66;38.58
61870;BME280;47810;42.264;23.826;2023-07-31T12:53:34;93345.41;;;29.44;38.23
61870;BME280;47810;42.264;23.826;2023-07-31T12:55:59;93338.28;;;29.43;39.54
61870;BME280;47810;42.264;23.826;2023-07-31T12:58:27;93330.97;;;28.82;40.25
61870;BME280;47810;42.264;23.826;2023-07-31T13:00:53;93334.44;;;29.14;40.58
61870;BME280;47810;42.264;23.826;2023-07-31T13:03:18;93341.94;;;29.19;39.23
61870;BME280;47810;42.264;23.826;2023-07-31T13:05:44;93340.56;;;29.28;39.04